Weather observations for the past three days for
Marshalltown, Marshalltown Municipal Airport
Metric (Imperial)
Date Time (cdt) Wind (kph) Vis. (km) Weather Sky Cond. Temperature (ºC) Relative Humidity Wind Chill (°C) Heat Index (°C) Pressure Precipitation (cm)
Air Dwpt 6 hour altimeter (cm) sea level (mb) 1 hr 3 hr 6 hr
Max. Min.
03 02:53 S 9 16.09 Fair CLR 25 21.1 79% 26 75.87 1010.5
03 01:53 SE 7 16.09 Fair CLR 23.9 21.1 84% 24 75.87 1010.5
03 00:53 S 7 16.09 Fair CLR 24.4 21.7 27.2 23.3 85% 25 75.87 1010.5
02 23:53 SE 7 16.09 Fair CLR 25 21.7 82% 26 75.87 1010.6
02 22:53 S 9 16.09 Fair CLR 26.7 21.7 74% 29 75.87 1010.6
02 21:53 S 13 16.09 Fair CLR 27.2 22.8 77% 30 75.87 1010.6
02 20:53 SE 9 16.09 Fair CLR 26.1 23.3 85% 28 75.84 1010.4
02 19:53 SE 11 16.09 Fair CLR 25.6 22.8 85% 27 75.82 1010.1
02 18:53 SE 11 16.09 A Few Clouds FEW120 27.2 22.8 33.9 24.4 77% 30 75.84 1010.2 0.23
02 17:53 SE 13 16.09 A Few Clouds FEW049 FEW110 27.2 22.2 74% 30 75.84 1010.4
02 16:53 E 9 16.09 Thunderstorm FEW047 SCT075 BKN120 25 22.2 85% 26 75.9 1011.1 0.13
02 15:53 SW 19 16.09 Thunderstorm Light Rain FEW095 SCT110 27.2 23.9 82% 30 75.97 1012.0 0.05 0.1
02 14:53 SW 9 14.48 Thunderstorm in Vicinity Light Rain FEW025 SCT110 29.4 23.9 72% 34 76 1012.2 0.05
02 13:53 Vrbl 6 16.09 Fair CLR 33.3 20 46% 36 76 1012.1
02 12:53 E 7 16.09 Fair CLR 32.2 21.1 32.8 21.1 52% 35 76.02 1012.5
02 11:53 S 7 16.09 Fair CLR 31.1 20 52% 33 76.05 1012.9
02 10:53 SE 9 16.09 Fair CLR 28.9 21.7 65% 32 76.07 1013.3
02 09:53 SE 7 16.09 NULL NULL 26.7 21.1 71% 28 76.05 1013.0
02 08:53 SE 11 16.09 NULL NULL 24.4 20 77% 25 76.05 1012.9
02 07:53 SE 9 16.09 A Few Clouds FEW110 22.2 20 87% 76.07 1013.4
02 06:53 E 6 16.09 Partly Cloudy SCT110 21.1 19.4 26.1 21.1 90% 76.07 1013.3
02 05:53 N 7 16.09 Mostly Cloudy BKN110 22.8 19.4 81% 76.1 1013.4
02 04:53 NW 13 16.09 Partly Cloudy SCT100 22.8 20 84% 76.12 1013.8
02 03:53 S 9 16.09 Mostly Cloudy BKN100 24.4 19.4 74% 25 75.97 1011.8
02 02:53 S 11 16.09 Mostly Cloudy BKN095 24.4 19.4 74% 25 76 1012.0
02 01:53 S 13 16.09 A Few Clouds FEW110 25.6 19.4 69% 27 75.92 1011.0
02 00:53 S 13 16.09 A Few Clouds FEW100 26.1 19.4 31.1 25.6 67% 27 75.95 1011.4
01 23:53 S 15 16.09 Fair CLR 26.7 20 67% 28 75.95 1011.6
01 22:53 S 11 16.09 Fair CLR 25.6 21.1 76% 27 75.97 1011.8
01 21:53 S 13 16.09 Fair CLR 26.7 21.7 74% 29 75.95 1011.7
01 20:53 SE 11 16.09 Fair CLR 27.8 22.2 72% 30 75.92 1011.4
01 19:53 SE 9 16.09 Fair CLR 28.3 22.8 72% 32 75.92 1011.3
01 18:53 S 11 16.09 Fair CLR 31.1 22.8 33.3 31.1 61% 35 75.92 1011.1
01 17:53 S 11 16.09 Fair CLR 32.2 22.2 56% 36 75.92 1011.3
01 16:53 S 15 16.09 Fair CLR 32.8 22.2 54% 37 75.95 1011.5
01 15:53 S 15 16.09 Fair CLR 32.8 21.7 52% 36 75.97 1011.9
01 14:53 S 13 16.09 Fair CLR 32.8 22.8 56% 38 76.02 1012.5
01 13:53 S 6 16.09 Fair CLR 32.2 22.8 58% 37 76.05 1012.9
01 12:53 Calm 16.09 Fair CLR 32.2 22.8 32.2 21.1 58% 37 76.07 1013.2
01 11:53 S 7 16.09 Fair CLR 31.1 22.8 61% 35 76.1 1013.6
01 10:53 Calm 16.09 Fair CLR 29.4 23.9 72% 34 76.07 1013.4
01 09:53 Calm 16.09 Fair CLR 26.1 25 94% 28 76.1 1013.7
01 08:53 E 6 4.83 Fog/Mist BKN001 24.4 23.9 97% 24 76.12 1014.2
01 07:53 Calm 6.44 Fog/Mist BKN001 22.8 22.2 96% 76.12 1014.1
01 06:52 E 6 3.22 Fog/Mist NULL 21.1 21.1 22.8 20.6 100% 76.1 1013.6
01 04:53 Calm 0.40 Fog VV001 21.7 21.7 100% 76.07 1013.3
01 03:53 Calm 0.40 Fog VV002 22.2 21.7 97% 76.05 1013.0
01 02:53 Calm 0.40 Fog VV001 21.7 21.7 100% 76.07 1013.3
01 01:53 Calm 0.40 Fog VV001 21.7 21.7 100% 76.1 1013.6
01 00:53 Calm 0.40 Fog VV003 22.8 22.8 30.6 22.8 100% 76.07 1013.4
31 23:53 Calm 9.66 Fog/Mist CLR 22.8 22.2 96% 76.05 1013.1
31 22:53 Calm 16.09 Fair CLR 24.4 23.3 94% 24 76.02 1012.7
31 21:53 Calm 16.09 Fair CLR 25 23.9 94% 26 76.02 1012.7
31 20:53 NW 6 16.09 Fair CLR 26.1 24.4 90% 28 76 1012.4
31 19:53 SW 9 16.09 Fair CLR 27.8 25 85% 32 75.97 1011.9
31 18:53 SW 11 16.09 Fair CLR 30.6 25 32.8 28.9 72% 37 75.95 1011.5
31 17:53 SW 13 16.09 Fair CLR 31.7 25 68% 39 75.92 1011.3
31 16:53 SW 19 16.09 Fair CLR 32.2 24.4 63% 39 75.92 1011.1
31 15:53 SW 11 16.09 Fair CLR 31.7 24.4 65% 38 75.92 1011.1
31 14:53 SW 19 16.09 Fair CLR 32.2 23.9 62% 38 75.9 1010.8
31 13:53 S 11 16.09 Fair CLR 30.6 23.3 65% 35 75.9 1010.8
31 12:53 SW 7 16.09 Fair CLR 28.9 22.8 29.4 22.8 70% 32 75.92 1011.4 0.05
31 11:53 SW 7 16.09 Fair CLR 27.8 21.7 69% 30 75.92 1011.5
31 10:53 SW 15 16.09 Fair CLR 26.1 21.1 74% 28 75.97 1012.0
31 09:53 W 7 8.05 Light Rain FEW090 SCT110 25 20 74% 26 75.87 1010.7 0.05 0.05
31 08:53 SW 15 16.09 Fair CLR 25 19.4 71% 26 75.87 1010.8
31 07:53 SW 13 16.09 Fair CLR 23.9 18.3 71% 25 75.84 1010.3
31 06:53 SW 9 16.09 Fair CLR 22.8 18.3 25 22.8 76% 75.82 1009.9
31 05:53 SW 13 16.09 Fair CLR 23.9 18.3 71% 25 75.77 1009.4
31 04:53 S 17 16.09 Fair CLR 24.4 18.3 69% 25 75.74 1009.0
Date Time (cdt) Wind (kph) Vis. (km) Weather Sky Cond. Air Dwpt Max. Min. Relative Humidity Wind Chill (°C) Heat Index (°C) altimeter (cm) sea level (mb) 1 hr 3 hr 6 hr
6 hour
Temperature (ºC) Pressure Precipitation (cm)